Grey Eagle, Minnesota
Current Conditions -  °F | °C
As of 7:22 AM on Wednesday 22 Oct 2014 (Local Time) from K14Y Reporting Station
Scattered Clouds Scattered Clouds  
Wind Chill: 33°   Ceiling: Unl
Heat Index: 41°   Visibility: 10mi
Dew Point: 36°   Wind: 15mph
Humidity: 81%   Direction: 130°SE
Pressure: 30.07"   Gusts: 20mph
Location:  45.83°N, 94.75°W
Report Text: K14Y 221222Z AUTO 13013G17KT 10SM SCT060 SCT095 05/02 A3007 RMK AO2
Loading
Personal Weather Stations






























Interactive Weather Map
Tropical Storm Tracking
New forecast layout! Learn more

10-Day Weather Forecast

Advertisements
Track Severe Weather on mobile